KCDC/CDC METAR and TAF weather

Enter ICAO airport designator
Station Type Date Time Source
KCDC METAR 2019/02/21 15:53 UTC NOAA

KCDC 211553Z AUTO 00000KT 2SM -SN BR BKN039 OVC049 M06/M07 A2947 RMK AO2 SLP004 P0001 T10611067


Station Type Date Time Source
KCDC Decoded METAR 2019/02/21 15:53 UTC NOAA

CEDAR CITY MUN AIRPORT, UT, United States (KCDC) 37-42N 113-06W 1714M
Feb 21, 2019 - 10:53 AM EST / 2019.02.21 1553 UTC
Wind: Calm:0
Visibility: 2 mile(s):0
Sky conditions: overcast
Weather: light snow; mist
Precipitation last hour: 0.01 inches
Temperature: 21.0 F (-6.1 C)
Dew Point: 19.9 F (-6.7 C)
Relative Humidity: 95%
Pressure (altimeter): 29.47 in. Hg (997 hPa)
ob: KCDC 211553Z AUTO 00000KT 2SM -SN BR BKN039 OVC049 M06/M07 A2947 RMK AO2 SLP004 P0001 T10611067
cycle: 16

Station Type Date Time Source
KCDC TAF 2019/02/21 15:06 UTC NOAA

TAF
AMD KCDC 211504Z 2115/2212 01006KT 1SM -SN BR SCT009 OVC020
FM211600 01005KT 3/4SM -SN BR VV009
FM212300 01009KT 1/2SM SN FZFG BKN008 OVC025


Example: see airport list